Aeroporto :
LOGIN :

Iscrizione | Disclaimer

   EN    FR    IT 

 










Sommario :    VFR   VFR Marginale   IFR   IFR Intensivo   IFR Molto Intensivo
Visibilità : 
Base nubi : 
>= 8 km
>= 3000ft
5 / 8 km
1000 / 3000 ft
1500m / 5 km
500 / 1000 ft
800 / 1500m
200 / 500 ft
< 800m
< 200 ft
Simboli :   Temporali  Nebbia  Neve Forte  Precipitazioni Forti  Vento > 20 kt
SIGMETs :   Varie  Temporali  Ghiacco  Turbolenza  Onda orograficha  Ceneri Vulcaniche






- Altitudine del aeroporto : 80 ft
- Codice IATA : LPL


EGGP - Liverpool John Lennon

ULTIMO METAR :
  • 121120Z 31017KT 9999 -SHRA SCT017 BKN024 BKN031 09/07 Q0993

METARs OBSOLETI :
  • 121050Z 31013KT 9999 VCSH SCT013 BKN015 10/08 Q0992
  • 121020Z 29016KT 9999 VCSH SCT013 BKN017 09/07 Q0992
  • 120950Z 29018KT 9999 VCSH SCT015 BKN017 09/07 Q0992
  • 120920Z 29021G31KT 9999 -RA SCT009 BKN019 08/07 Q0992
  • 120850Z 29020G30KT 9999 -RA SCT009 BKN015 08/08 Q0992 RERA

TAF TAF EGGP
Valido dal 12 a 12 ore il 13 a 12 ore UTC


121106Z 1212/1312 30015KT 9999 FEW012 SCT030
TEMPO 1212/1306 6000 SHRA
BECMG 1300/1303 24005KT
TEMPO 1306/1312 4000 SHRA BKN014
ATIS : +44 151 907 2000 (option 5 or ext 5150)
Met : +44 871 750 5150



MetMap, La meteo Aeronautica in un colpo d'occhio ! - Copyright ORBIFLY Dicembre 2007 - Disclaimer

ORBIFLY MET'MAP TEAM :

Programmazione e sviluppo : Alexandra Zaïnal
Concezione e sviluppo : Baudouin d'Aumeries
Co-Programmazione e sviluppo : Marc-Olivier Méhu
Supporto tecnico e logistico : Manuel Goepfert
Aiuto per la traduzione : Arnaldo La Scala

Contatto : metmap@orbifly.com




FONTI E CREDITI :

   NOAA